Time;durP1;ratioP1;P1;durP2;ratioP2;P2;SDS_P1;SDS_P2;PMS_P1;PMS_P2;Temp;Humidity;BMP_temperature;BMP_pressure;BME280_temperature;BME280_humidity;BME280_pressure;Samples;Min_cycle;Max_cycle;Signal;HPM_P1;HPM_P2
2023/03/25 00:00:20;;;;;;;2.83;1.20;;;10.90;99.90;;;;;;5012379;28;20232;-69
2023/03/25 00:02:51;;;;;;;1.20;1.00;;;10.80;99.90;;;;;;5011880;28;20197;-69
2023/03/25 00:05:19;;;;;;;0.80;0.73;;;10.90;99.90;;;;;;5009610;28;20340;-69
2023/03/25 00:07:48;;;;;;;1.00;0.73;;;10.50;99.90;;;;;;5010734;28;20754;-69
2023/03/25 00:10:14;;;;;;;1.30;1.00;;;10.50;99.90;;;;;;5010312;28;20556;-68
2023/03/25 00:12:41;;;;;;;1.58;1.13;;;10.80;99.90;;;;;;5011649;28;20181;-69
2023/03/25 00:15:08;;;;;;;1.15;0.60;;;10.10;99.90;;;;;;5009997;28;20182;-69
2023/03/25 00:17:35;;;;;;;1.60;0.63;;;10.20;99.90;;;;;;5011228;28;20206;-69
2023/03/25 00:20:03;;;;;;;0.60;0.50;;;10.20;99.90;;;;;;5009845;28;20244;-69
2023/03/25 00:22:29;;;;;;;0.80;0.70;;;10.10;99.90;;;;;;5010772;28;20247;-69
2023/03/25 00:24:54;;;;;;;1.00;0.63;;;10.10;99.90;;;;;;5011901;28;20256;-68
2023/03/25 00:27:20;;;;;;;0.80;0.50;;;9.90;99.90;;;;;;5003354;28;20205;-70
2023/03/25 00:29:46;;;;;;;1.17;0.60;;;10.20;99.90;;;;;;5011051;28;20194;-69
2023/03/25 00:32:13;;;;;;;1.10;0.60;;;10.10;99.90;;;;;;5011196;28;20207;-69
2023/03/25 00:34:46;;;;;;;0.80;0.60;;;9.90;99.90;;;;;;5007563;28;20186;-69
2023/03/25 00:37:16;;;;;;;0.88;0.70;;;9.90;99.90;;;;;;5010286;28;20278;-69
2023/03/25 00:39:43;;;;;;;0.70;0.70;;;10.00;99.90;;;;;;5009199;28;20191;-69
2023/03/25 00:42:10;;;;;;;1.13;0.70;;;10.00;99.90;;;;;;5006964;28;20205;-69
2023/03/25 00:44:35;;;;;;;1.80;0.70;;;9.80;99.90;;;;;;5010796;28;20195;-69
2023/03/25 00:47:01;;;;;;;0.80;0.50;;;9.70;99.90;;;;;;5010358;28;20212;-69
2023/03/25 00:49:27;;;;;;;1.40;0.60;;;9.60;99.90;;;;;;5009557;28;20197;-69
2023/03/25 00:51:54;;;;;;;0.75;0.60;;;9.80;99.90;;;;;;5011994;28;20204;-70
2023/03/25 00:54:21;;;;;;;0.80;0.60;;;9.90;99.90;;;;;;5010868;28;20180;-69
2023/03/25 00:56:47;;;;;;;1.17;0.80;;;9.50;99.90;;;;;;5042130;28;20284;-70
2023/03/25 00:59:13;;;;;;;0.80;0.80;;;9.80;99.90;;;;;;5010874;28;20185;-70
2023/03/25 01:01:39;;;;;;;0.90;0.80;;;9.50;99.90;;;;;;5010951;28;20220;-70
2023/03/25 01:04:10;;;;;;;1.67;0.90;;;9.60;99.90;;;;;;5012198;28;20738;-70
2023/03/25 01:06:40;;;;;;;2.45;0.85;;;9.50;99.90;;;;;;5007908;28;20188;-69
2023/03/25 01:09:08;;;;;;;1.55;0.70;;;9.40;99.90;;;;;;5010024;28;20660;-69
2023/03/25 01:11:36;;;;;;;0.90;0.80;;;9.60;99.90;;;;;;5008846;28;20214;-69
2023/03/25 01:14:04;;;;;;;4.25;0.77;;;9.40;99.90;;;;;;5011816;28;20195;-70
2023/03/25 01:16:30;;;;;;;1.55;1.02;;;9.20;99.90;;;;;;5009560;28;20201;-70
2023/03/25 01:18:56;;;;;;;1.63;0.80;;;9.60;99.90;;;;;;5006489;28;20180;-69
2023/03/25 01:21:21;;;;;;;1.67;0.80;;;9.70;99.90;;;;;;5009047;28;20487;-70
2023/03/25 01:23:47;;;;;;;0.90;0.70;;;9.30;99.90;;;;;;5007259;28;20240;-69
2023/03/25 01:26:14;;;;;;;1.20;0.70;;;9.70;99.90;;;;;;5006026;28;20448;-70
2023/03/25 01:28:40;;;;;;;0.98;0.70;;;9.60;99.90;;;;;;5007226;28;20259;-70
2023/03/25 01:31:08;;;;;;;2.40;1.10;;;9.50;99.90;;;;;;5007793;28;20219;-70
2023/03/25 01:33:34;;;;;;;1.90;0.90;;;9.40;99.90;;;;;;5011175;28;20199;-69
2023/03/25 01:36:00;;;;;;;5.27;1.07;;;9.60;99.90;;;;;;5011408;28;20277;-69
2023/03/25 01:38:26;;;;;;;1.05;0.70;;;9.40;99.90;;;;;;5010308;28;20188;-69
2023/03/25 01:40:53;;;;;;;0.70;0.70;;;9.50;99.90;;;;;;5034591;28;20258;-69
2023/03/25 01:43:19;;;;;;;1.00;0.90;;;9.60;99.90;;;;;;5009034;28;20217;-70
2023/03/25 01:45:45;;;;;;;2.15;1.10;;;9.20;99.90;;;;;;5008284;28;20191;-70
2023/03/25 01:48:18;;;;;;;1.33;0.90;;;9.60;99.90;;;;;;5011983;28;20559;-69
2023/03/25 01:50:57;;;;;;;1.20;0.80;;;9.50;99.90;;;;;;5009857;28;20695;-70
2023/03/25 01:53:23;;;;;;;1.52;0.80;;;9.40;99.90;;;;;;5010309;28;20180;-69
2023/03/25 01:55:51;;;;;;;1.10;0.80;;;9.70;99.90;;;;;;5004778;28;20620;-69
2023/03/25 01:58:19;;;;;;;1.98;1.02;;;9.60;99.90;;;;;;5009108;28;20181;-69
2023/03/25 02:00:46;;;;;;;2.15;1.00;;;9.50;99.90;;;;;;5024617;28;20200;-69
2023/03/25 02:03:12;;;;;;;2.08;0.98;;;9.60;99.90;;;;;;5011680;28;20189;-70
2023/03/25 02:05:45;;;;;;;2.47;1.10;;;9.50;99.90;;;;;;5005502;28;20193;-70
2023/03/25 02:08:14;;;;;;;1.98;0.98;;;9.70;99.90;;;;;;5041366;28;20281;-70
2023/03/25 02:10:43;;;;;;;1.40;0.88;;;9.50;99.90;;;;;;5006998;28;20290;-69
2023/03/25 02:13:10;;;;;;;1.15;0.75;;;9.60;99.90;;;;;;5007831;28;20188;-69
2023/03/25 02:16:04;;;;;;;3.20;0.90;;;9.40;99.90;;;;;;5009243;28;20192;-69
2023/03/25 02:18:44;;;;;;;1.23;0.70;;;9.50;99.90;;;;;;5008455;28;20297;-69
2023/03/25 02:21:58;;;;;;;2.25;1.05;;;9.60;99.90;;;;;;5005347;28;20684;-69
2023/03/25 02:24:52;;;;;;;5.90;1.63;;;9.50;99.90;;;;;;5011248;28;20214;-70
2023/03/25 02:27:46;;;;;;;2.15;1.00;;;9.50;99.90;;;;;;5014635;28;20203;-69
2023/03/25 02:30:18;;;;;;;1.23;0.90;;;9.60;99.90;;;;;;5010976;28;20681;-70
2023/03/25 02:33:15;;;;;;;2.00;0.80;;;9.50;99.90;;;;;;5007149;28;20562;-70
2023/03/25 02:36:02;;;;;;;1.50;0.70;;;9.60;99.90;;;;;;5008140;28;20581;-70
2023/03/25 02:38:31;;;;;;;1.70;0.68;;;9.40;99.90;;;;;;5007504;28;20189;-69
2023/03/25 02:41:03;;;;;;;0.80;0.70;;;9.50;99.90;;;;;;5020819;28;20208;-71
2023/03/25 02:44:04;;;;;;;2.15;0.88;;;9.40;99.90;;;;;;5023763;28;20195;-70
2023/03/25 02:46:31;;;;;;;2.45;1.50;;;9.60;99.90;;;;;;5007446;28;20197;-69
2023/03/25 02:49:03;;;;;;;1.35;0.75;;;9.60;99.90;;;;;;5009160;28;20193;-70
2023/03/25 02:51:37;;;;;;;1.50;0.90;;;9.40;99.90;;;;;;5004836;28;20288;-70
2023/03/25 02:54:08;;;;;;;1.20;0.70;;;9.40;99.90;;;;;;5009677;28;20193;-69
2023/03/25 02:56:36;;;;;;;1.95;0.90;;;9.50;99.90;;;;;;5006209;28;20183;-70
2023/03/25 02:59:03;;;;;;;0.90;0.60;;;9.50;99.90;;;;;;5009116;28;20184;-69
2023/03/25 03:01:29;;;;;;;1.80;0.75;;;9.50;99.90;;;;;;5008193;28;20200;-70
2023/03/25 03:03:55;;;;;;;0.87;0.80;;;9.80;99.90;;;;;;5008206;28;20280;-69
2023/03/25 03:06:23;;;;;;;1.55;0.90;;;9.70;99.90;;;;;;5005061;28;20687;-70
2023/03/25 03:09:15;;;;;;;2.35;0.90;;;9.80;99.90;;;;;;5006788;28;20213;-70
2023/03/25 03:11:58;;;;;;;1.27;0.70;;;9.70;99.90;;;;;;5008042;28;20723;-70
2023/03/25 03:14:33;;;;;;;2.10;0.85;;;9.50;99.90;;;;;;5006238;28;20629;-70
2023/03/25 03:17:04;;;;;;;1.25;0.70;;;9.70;99.90;;;;;;5005535;28;20195;-70
2023/03/25 03:19:39;;;;;;;3.15;1.10;;;9.70;99.90;;;;;;5007879;28;20192;-69
2023/03/25 03:22:14;;;;;;;1.33;0.73;;;9.60;99.90;;;;;;5008374;28;20201;-71
2023/03/25 03:24:57;;;;;;;1.63;0.90;;;9.70;99.90;;;;;;5007616;28;20195;-70
2023/03/25 03:27:41;;;;;;;1.52;0.90;;;9.60;99.90;;;;;;5000572;28;20247;-69
2023/03/25 03:30:18;;;;;;;1.00;0.70;;;9.50;99.90;;;;;;5006999;28;20744;-69
2023/03/25 03:32:48;;;;;;;0.98;0.65;;;9.70;99.90;;;;;;5004897;28;20650;-70
2023/03/25 03:35:25;;;;;;;0.90;0.60;;;9.50;99.90;;;;;;5025369;28;20210;-70
2023/03/25 03:38:01;;;;;;;1.90;0.70;;;9.60;99.90;;;;;;5009844;28;20194;-68
2023/03/25 03:40:30;;;;;;;1.20;0.80;;;9.40;99.90;;;;;;5006014;28;20217;-68
2023/03/25 03:43:15;;;;;;;1.48;0.60;;;9.10;99.90;;;;;;5006318;28;20197;-68
2023/03/25 03:45:53;;;;;;;0.77;0.57;;;9.40;99.90;;;;;;5004523;28;20307;-69
2023/03/25 03:48:34;;;;;;;1.20;0.50;;;9.40;99.90;;;;;;5005581;28;20968;-68
2023/03/25 03:51:33;;;;;;;0.60;0.50;;;9.20;99.90;;;;;;5004608;28;20214;-69
2023/03/25 03:54:02;;;;;;;0.70;0.50;;;8.90;99.90;;;;;;5008593;28;20180;-69
2023/03/25 03:56:40;;;;;;;0.75;0.52;;;8.80;99.90;;;;;;5007939;28;20181;-69
2023/03/25 03:59:13;;;;;;;0.93;0.50;;;8.70;99.90;;;;;;5007589;28;20677;-69
2023/03/25 04:01:44;;;;;;;0.60;0.40;;;9.00;99.90;;;;;;5007964;28;20722;-69
2023/03/25 04:04:13;;;;;;;1.60;0.40;;;8.80;99.90;;;;;;5008081;28;20268;-69
2023/03/25 04:06:45;;;;;;;1.60;0.65;;;8.90;99.90;;;;;;5003761;28;20591;-69
2023/03/25 04:09:27;;;;;;;1.15;0.40;;;8.90;99.90;;;;;;5009343;28;20171;-69
2023/03/25 04:11:58;;;;;;;2.13;0.60;;;8.60;99.90;;;;;;5003174;28;20703;-69
2023/03/25 04:14:24;;;;;;;0.70;0.55;;;8.80;99.90;;;;;;5009049;28;20193;-69
2023/03/25 04:16:51;;;;;;;1.27;0.60;;;8.80;99.90;;;;;;5010834;28;20220;-69
2023/03/25 04:19:18;;;;;;;0.70;0.50;;;8.70;99.90;;;;;;5010879;28;20246;-69
2023/03/25 04:21:44;;;;;;;0.80;0.50;;;8.90;99.90;;;;;;5011720;28;20318;-68
2023/03/25 04:24:10;;;;;;;1.13;0.60;;;8.70;99.90;;;;;;5011109;28;20180;-69
2023/03/25 04:26:37;;;;;;;1.05;0.60;;;8.80;99.90;;;;;;5010804;28;20195;-69
2023/03/25 04:29:03;;;;;;;1.35;0.60;;;8.60;99.90;;;;;;5011415;28;20795;-69
2023/03/25 04:31:30;;;;;;;1.45;0.50;;;8.90;99.90;;;;;;5015376;28;20619;-68
2023/03/25 04:33:57;;;;;;;0.77;0.65;;;8.70;99.90;;;;;;5009086;28;20201;-69
2023/03/25 04:36:27;;;;;;;1.20;0.50;;;8.50;99.90;;;;;;5007979;28;20175;-69
2023/03/25 04:38:54;;;;;;;1.25;0.65;;;8.60;99.90;;;;;;5008697;28;20187;-68
2023/03/25 04:41:23;;;;;;;0.80;0.60;;;9.00;99.90;;;;;;5023598;28;20202;-70
2023/03/25 04:43:49;;;;;;;1.50;0.77;;;8.60;99.90;;;;;;5010658;28;20563;-70
2023/03/25 04:46:16;;;;;;;0.70;0.60;;;8.60;99.90;;;;;;5010458;28;20183;-69
2023/03/25 04:48:43;;;;;;;1.50;0.60;;;8.70;99.90;;;;;;5010432;28;20629;-69
2023/03/25 04:51:13;;;;;;;0.60;0.50;;;8.70;99.90;;;;;;5008499;28;20208;-70
2023/03/25 04:53:39;;;;;;;0.80;0.60;;;8.50;99.90;;;;;;5011816;28;20911;-71
2023/03/25 04:56:11;;;;;;;1.52;0.65;;;8.50;99.90;;;;;;5008515;28;20191;-68
2023/03/25 04:58:37;;;;;;;0.95;0.60;;;8.60;99.90;;;;;;5016083;28;20255;-68
2023/03/25 05:01:04;;;;;;;0.95;0.60;;;8.40;99.90;;;;;;5011704;28;20297;-69
2023/03/25 05:03:31;;;;;;;1.40;0.80;;;8.40;99.90;;;;;;5013367;28;20187;-69
2023/03/25 05:05:56;;;;;;;1.08;0.70;;;8.50;99.90;;;;;;5011870;28;20738;-68
2023/03/25 05:08:22;;;;;;;1.50;0.70;;;8.40;99.90;;;;;;5011300;28;20317;-68
2023/03/25 05:10:48;;;;;;;2.30;0.80;;;8.40;99.90;;;;;;5005913;28;20209;-69
2023/03/25 05:13:14;;;;;;;1.73;0.80;;;8.30;99.90;;;;;;5010755;28;20211;-69
2023/03/25 05:15:39;;;;;;;2.97;0.90;;;8.30;99.90;;;;;;5005896;28;20469;-69
2023/03/25 05:18:14;;;;;;;2.27;1.23;;;8.40;99.90;;;;;;5010788;28;20186;-69
2023/03/25 05:20:45;;;;;;;1.65;0.80;;;8.50;99.90;;;;;;5010815;28;20262;-69
2023/03/25 05:23:15;;;;;;;2.45;1.13;;;8.50;99.90;;;;;;5007851;28;20197;-68
2023/03/25 05:25:44;;;;;;;1.48;0.70;;;8.40;99.90;;;;;;5007107;28;20198;-68
2023/03/25 05:28:12;;;;;;;3.55;0.85;;;8.90;99.90;;;;;;5007167;28;20208;-68
2023/03/25 05:30:44;;;;;;;1.63;0.85;;;8.30;99.90;;;;;;5007135;28;20214;-68
2023/03/25 05:33:15;;;;;;;1.90;1.05;;;8.60;99.90;;;;;;5004248;28;20179;-68
2023/03/25 05:35:41;;;;;;;1.42;0.80;;;9.20;99.90;;;;;;5006263;28;20181;-69
2023/03/25 05:38:08;;;;;;;3.28;1.02;;;8.80;99.90;;;;;;5008642;28;20181;-69
2023/03/25 05:40:35;;;;;;;2.00;0.80;;;8.80;99.90;;;;;;5006410;28;20239;-69
2023/03/25 05:43:02;;;;;;;2.65;0.82;;;9.10;99.90;;;;;;5006441;28;20191;-69
2023/03/25 05:45:28;;;;;;;1.52;1.20;;;9.10;99.90;;;;;;5007703;28;20232;-69
2023/03/25 05:47:53;;;;;;;1.38;0.85;;;8.50;99.90;;;;;;5005971;28;20299;-69
2023/03/25 05:50:20;;;;;;;3.20;1.10;;;9.00;99.90;;;;;;5005117;28;20279;-69
2023/03/25 05:52:48;;;;;;;1.73;0.70;;;9.20;99.90;;;;;;5006756;28;21097;-69
2023/03/25 05:55:20;;;;;;;3.33;0.77;;;9.40;99.90;;;;;;5002903;28;20184;-69
2023/03/25 05:57:46;;;;;;;4.60;1.38;;;9.40;99.90;;;;;;5005629;28;20212;-69
2023/03/25 06:00:14;;;;;;;3.60;1.40;;;9.40;99.90;;;;;;5006850;28;20227;-69
2023/03/25 06:02:41;;;;;;;2.10;1.00;;;9.20;99.90;;;;;;5008948;28;20420;-69
2023/03/25 06:05:08;;;;;;;2.10;0.98;;;9.30;99.90;;;;;;5006713;28;20736;-69
2023/03/25 06:07:38;;;;;;;2.17;0.90;;;9.40;99.90;;;;;;5006367;28;20219;-68
2023/03/25 06:10:04;;;;;;;3.08;0.95;;;9.40;99.90;;;;;;5007302;28;20177;-68
2023/03/25 06:12:32;;;;;;;1.85;0.80;;;9.50;99.90;;;;;;5006516;28;20830;-68
2023/03/25 06:14:58;;;;;;;3.95;0.98;;;9.90;99.90;;;;;;5005512;28;20192;-68
2023/03/25 06:17:24;;;;;;;0.95;0.85;;;9.50;99.90;;;;;;5008673;28;20234;-69
2023/03/25 06:19:50;;;;;;;4.82;1.30;;;9.60;99.90;;;;;;5005285;28;20205;-68
2023/03/25 06:22:20;;;;;;;1.05;0.75;;;9.40;99.90;;;;;;5006414;28;20195;-69
2023/03/25 06:24:47;;;;;;;1.70;1.00;;;9.50;99.90;;;;;;5005578;28;20239;-69
2023/03/25 06:27:17;;;;;;;2.83;1.02;;;9.40;99.90;;;;;;5003626;28;20248;-68
2023/03/25 06:29:43;;;;;;;3.55;1.02;;;9.60;99.90;;;;;;5008856;28;20191;-69
2023/03/25 06:32:12;;;;;;;2.35;1.02;;;9.80;99.90;;;;;;5006258;28;20320;-68
2023/03/25 06:34:41;;;;;;;3.08;1.13;;;9.90;99.90;;;;;;5003528;28;20589;-69
2023/03/25 06:37:07;;;;;;;0.90;0.88;;;9.80;99.90;;;;;;5001661;28;20250;-67
2023/03/25 06:39:36;;;;;;;4.43;1.00;;;9.80;99.90;;;;;;5006386;28;20304;-67
2023/03/25 06:42:04;;;;;;;1.00;0.80;;;9.80;99.90;;;;;;5002195;28;20242;-67
2023/03/25 06:44:30;;;;;;;1.98;1.05;;;9.90;99.90;;;;;;5008483;28;20188;-69
2023/03/25 06:46:55;;;;;;;2.30;0.93;;;9.80;99.90;;;;;;5006608;28;20189;-69
2023/03/25 06:49:21;;;;;;;2.80;0.70;;;9.70;99.90;;;;;;5004549;28;21169;-70
2023/03/25 06:51:48;;;;;;;3.20;1.40;;;10.00;99.90;;;;;;5005097;28;20201;-68
2023/03/25 06:54:14;;;;;;;2.25;1.02;;;10.30;99.90;;;;;;5005964;28;20958;-69
2023/03/25 06:56:40;;;;;;;3.13;1.00;;;10.00;99.90;;;;;;5019267;28;20192;-69
2023/03/25 06:59:05;;;;;;;1.38;0.90;;;10.10;99.90;;;;;;5010556;28;20182;-67
2023/03/25 07:01:31;;;;;;;2.53;1.10;;;10.90;99.90;;;;;;5007431;28;20214;-67
2023/03/25 07:03:56;;;;;;;3.63;1.73;;;11.30;99.90;;;;;;5008234;28;20225;-67
2023/03/25 07:06:23;;;;;;;5.20;1.07;;;11.40;99.90;;;;;;5006746;28;20572;-68
2023/03/25 07:08:49;;;;;;;2.00;1.17;;;11.60;99.90;;;;;;5007757;28;20203;-67
2023/03/25 07:11:24;;;;;;;1.77;0.70;;;12.50;99.60;;;;;;5001159;28;20289;-70
2023/03/25 07:13:52;;;;;;;1.30;0.77;;;12.40;98.40;;;;;;5006581;28;20273;-70
2023/03/25 07:16:19;;;;;;;1.92;1.02;;;12.30;98.20;;;;;;5009898;28;20584;-69
2023/03/25 07:18:45;;;;;;;3.05;1.20;;;11.70;99.30;;;;;;5005019;28;20186;-70
2023/03/25 07:21:11;;;;;;;1.93;0.70;;;11.40;99.70;;;;;;5033146;28;20220;-70
2023/03/25 07:23:36;;;;;;;2.30;0.83;;;11.30;99.90;;;;;;5005719;28;20198;-71
2023/03/25 07:26:02;;;;;;;1.30;0.93;;;11.20;99.90;;;;;;5009614;28;20198;-70
2023/03/25 07:28:28;;;;;;;1.93;0.90;;;11.10;99.90;;;;;;5009526;28;20224;-70
2023/03/25 07:30:53;;;;;;;2.80;1.33;;;11.60;99.90;;;;;;5010054;28;20574;-70
2023/03/25 07:33:19;;;;;;;1.03;0.93;;;11.10;99.90;;;;;;5008189;28;20544;-67
2023/03/25 07:35:45;;;;;;;1.90;0.80;;;11.10;99.90;;;;;;5007144;28;20185;-70
2023/03/25 07:38:11;;;;;;;2.47;0.90;;;11.00;99.90;;;;;;5009797;28;20196;-71
2023/03/25 07:40:37;;;;;;;3.13;0.80;;;11.00;99.90;;;;;;5007567;28;20641;-71
2023/03/25 07:43:02;;;;;;;1.88;1.25;;;11.30;99.90;;;;;;5008109;28;20187;-70
2023/03/25 07:45:28;;;;;;;1.20;0.67;;;12.20;99.90;;;;;;5009992;28;20227;-68
2023/03/25 07:47:54;;;;;;;2.60;0.80;;;13.50;98.80;;;;;;5009072;28;20219;-70
2023/03/25 07:50:21;;;;;;;2.07;1.03;;;15.20;95.60;;;;;;5001803;28;20202;-65
2023/03/25 07:52:47;;;;;;;1.48;0.77;;;16.30;92.90;;;;;;5007234;28;20973;-67
2023/03/25 07:55:13;;;;;;;0.90;0.60;;;17.90;89.50;;;;;;5007885;28;20218;-66
2023/03/25 07:57:41;;;;;;;1.33;0.70;;;18.10;86.10;;;;;;5007059;28;20450;-65
2023/03/25 08:00:08;;;;;;;0.90;0.80;;;18.60;84.70;;;;;;5011596;28;20190;-65
2023/03/25 08:02:34;;;;;;;0.75;0.75;;;19.60;79.30;;;;;;5009242;28;20194;-65
2023/03/25 08:04:59;;;;;;;1.17;0.60;;;18.90;78.30;;;;;;5011803;28;20205;-66
2023/03/25 08:07:27;;;;;;;1.50;0.80;;;17.70;80.00;;;;;;5011121;28;20225;-67
2023/03/25 08:09:52;;;;;;;1.20;1.10;;;16.70;82.40;;;;;;5008214;28;20179;-67
2023/03/25 08:12:18;;;;;;;1.73;0.80;;;16.00;85.60;;;;;;5008864;28;20699;-66
2023/03/25 08:14:44;;;;;;;1.30;0.90;;;15.10;88.80;;;;;;5008121;28;20186;-66
2023/03/25 08:17:10;;;;;;;2.10;0.70;;;15.00;90.10;;;;;;5010503;28;20568;-66
2023/03/25 08:19:35;;;;;;;2.13;0.67;;;15.30;90.10;;;;;;5008660;28;20202;-67
2023/03/25 08:22:01;;;;;;;1.07;0.87;;;15.40;90.50;;;;;;5010663;28;20206;-66
2023/03/25 08:24:28;;;;;;;2.80;0.80;;;15.40;90.00;;;;;;5010169;28;20282;-67
2023/03/25 08:26:55;;;;;;;1.67;0.60;;;15.60;89.60;;;;;;5006153;28;20193;-67
2023/03/25 08:29:21;;;;;;;1.52;0.70;;;15.10;90.50;;;;;;5010289;28;20189;-66
2023/03/25 08:31:50;;;;;;;1.67;0.67;;;14.70;90.90;;;;;;5011063;28;20277;-67
2023/03/25 08:34:18;;;;;;;2.65;0.90;;;14.30;91.30;;;;;;5009122;28;20183;-67
2023/03/25 08:36:44;;;;;;;2.75;1.08;;;14.20;92.50;;;;;;5010307;28;20183;-67
2023/03/25 08:39:11;;;;;;;1.65;0.65;;;13.90;93.10;;;;;;5013462;28;20217;-66
2023/03/25 08:41:37;;;;;;;0.80;0.60;;;13.60;93.50;;;;;;5000519;28;20237;-67
2023/03/25 08:44:04;;;;;;;1.17;0.80;;;13.20;94.70;;;;;;5007470;28;20222;-65
2023/03/25 08:46:30;;;;;;;3.08;1.17;;;12.80;96.00;;;;;;5006285;28;20207;-65
2023/03/25 08:48:55;;;;;;;1.77;0.87;;;12.30;97.00;;;;;;5010254;28;20455;-65
2023/03/25 08:51:21;;;;;;;2.80;0.67;;;11.90;99.20;;;;;;5024968;28;20217;-65
2023/03/25 08:53:47;;;;;;;1.13;0.60;;;11.70;99.90;;;;;;5006961;28;20563;-65
2023/03/25 08:56:12;;;;;;;0.80;0.70;;;12.00;99.90;;;;;;5008280;28;20821;-65
2023/03/25 08:58:38;;;;;;;0.90;0.70;;;11.70;99.90;;;;;;5010756;28;20652;-66
2023/03/25 09:01:05;;;;;;;1.40;0.70;;;11.90;99.90;;;;;;5003748;28;20299;-65
2023/03/25 09:03:31;;;;;;;0.85;0.60;;;11.70;99.90;;;;;;5006377;28;20455;-66
2023/03/25 09:05:57;;;;;;;1.70;0.70;;;11.30;99.90;;;;;;5005941;28;20285;-66
2023/03/25 09:08:23;;;;;;;0.83;0.63;;;11.30;99.90;;;;;;5010685;28;20755;-65
2023/03/25 09:10:49;;;;;;;0.70;0.60;;;11.10;99.90;;;;;;5007178;28;20564;-65
2023/03/25 09:13:14;;;;;;;1.00;0.70;;;11.20;99.90;;;;;;5009819;28;20187;-66
2023/03/25 09:15:40;;;;;;;0.90;0.60;;;11.00;99.90;;;;;;5010502;28;20196;-65
2023/03/25 09:18:06;;;;;;;0.90;0.60;;;11.10;99.90;;;;;;5009147;28;20225;-65
2023/03/25 09:20:32;;;;;;;1.33;0.80;;;11.00;99.90;;;;;;5009042;28;20468;-66
2023/03/25 09:22:57;;;;;;;0.60;0.60;;;11.20;99.90;;;;;;5010566;28;20259;-66
2023/03/25 09:25:24;;;;;;;1.20;0.53;;;11.80;99.90;;;;;;5007821;28;20481;-65
2023/03/25 09:27:50;;;;;;;1.05;1.00;;;12.30;99.90;;;;;;5008369;28;20746;-65
2023/03/25 09:30:15;;;;;;;0.80;0.50;;;12.30;99.90;;;;;;5010268;28;20206;-66
2023/03/25 09:32:41;;;;;;;1.00;0.90;;;12.70;99.90;;;;;;5008830;28;20263;-65
2023/03/25 09:35:07;;;;;;;1.43;0.80;;;12.80;99.90;;;;;;5009107;28;20191;-65
2023/03/25 09:37:33;;;;;;;1.20;0.60;;;12.70;99.90;;;;;;5008532;28;20570;-65
2023/03/25 09:39:58;;;;;;;1.23;0.60;;;12.70;99.90;;;;;;5009998;28;20206;-64
2023/03/25 09:42:46;;;;;;;1.00;0.70;;;13.20;99.90;;;;;;5010158;28;20445;-65
2023/03/25 09:45:35;;;;;;;2.08;0.80;;;13.20;99.90;;;;;;5011227;28;20229;-65
2023/03/25 09:48:21;;;;;;;1.10;0.70;;;13.60;99.90;;;;;;5008372;28;20206;-65
2023/03/25 09:50:47;;;;;;;0.90;0.80;;;13.90;99.90;;;;;;5005450;28;20741;-65
2023/03/25 09:53:13;;;;;;;1.17;1.00;;;14.70;99.90;;;;;;5009089;28;20270;-65
2023/03/25 09:55:41;;;;;;;2.50;0.60;;;15.40;99.90;;;;;;5009049;28;20206;-65
2023/03/25 09:58:25;;;;;;;1.60;0.80;;;15.90;97.40;;;;;;5009467;28;20206;-65
2023/03/25 10:01:23;;;;;;;1.70;0.80;;;15.80;96.80;;;;;;5007258;28;20195;-65
2023/03/25 10:03:56;;;;;;;0.90;0.80;;;15.90;98.20;;;;;;4988485;28;20207;-65
2023/03/25 10:06:25;;;;;;;0.82;0.60;;;15.90;96.90;;;;;;5005634;28;20211;-65
2023/03/25 10:09:17;;;;;;;1.52;1.00;;;15.80;95.70;;;;;;5005503;28;20756;-65
2023/03/25 10:12:16;;;;;;;1.13;0.80;;;15.80;97.30;;;;;;5005121;28;20229;-65
2023/03/25 10:14:50;;;;;;;1.17;1.08;;;15.30;97.80;;;;;;5004044;28;20187;-66
2023/03/25 10:17:24;;;;;;;2.55;1.10;;;15.00;98.10;;;;;;5003963;28;21989;-68
2023/03/25 10:20:04;;;;;;;1.27;0.80;;;15.10;99.10;;;;;;5006272;28;20227;-67
2023/03/25 10:22:53;;;;;;;2.05;0.90;;;15.50;97.90;;;;;;5005905;28;20194;-68
2023/03/25 10:25:23;;;;;;;0.80;0.70;;;16.10;96.90;;;;;;5006474;28;20272;-69
2023/03/25 10:27:51;;;;;;;1.10;0.85;;;16.20;95.80;;;;;;5004517;28;20221;-69
2023/03/25 10:30:41;;;;;;;2.20;1.15;;;16.00;95.70;;;;;;5006108;28;20218;-67
2023/03/25 10:33:38;;;;;;;0.70;0.60;;;16.30;95.20;;;;;;5021175;28;20180;-69
2023/03/25 10:36:11;;;;;;;1.40;0.70;;;16.20;93.10;;;;;;5007563;28;20190;-69
2023/03/25 10:38:37;;;;;;;0.90;0.60;;;16.60;92.70;;;;;;5008851;28;20199;-70
2023/03/25 10:41:27;;;;;;;1.65;0.80;;;16.60;93.10;;;;;;5003878;28;20210;-67
2023/03/25 10:43:53;;;;;;;2.70;1.05;;;16.60;92.40;;;;;;5004785;28;20191;-67
2023/03/25 10:46:38;;;;;;;1.77;0.80;;;16.40;92.70;;;;;;5004000;28;20596;-67
2023/03/25 10:49:03;;;;;;;3.53;0.70;;;16.10;92.40;;;;;;5001501;28;20206;-67
2023/03/25 10:51:33;;;;;;;4.13;1.17;;;16.00;93.60;;;;;;5018577;28;20229;-65
2023/03/25 10:53:59;;;;;;;1.60;0.90;;;15.80;93.50;;;;;;5008335;28;20266;-65
2023/03/25 10:56:26;;;;;;;2.00;0.70;;;15.40;93.60;;;;;;5006320;28;20940;-65
2023/03/25 10:58:56;;;;;;;1.92;0.80;;;15.40;93.60;;;;;;5008468;28;20798;-65
2023/03/25 11:01:40;;;;;;;0.95;0.85;;;15.10;92.80;;;;;;5006468;28;20207;-65
2023/03/25 11:04:13;;;;;;;1.85;0.90;;;15.40;93.70;;;;;;5007083;28;20653;-65
2023/03/25 11:06:40;;;;;;;1.27;0.73;;;15.70;92.50;;;;;;5004131;28;20226;-67
2023/03/25 11:09:33;;;;;;;1.25;0.60;;;15.60;91.30;;;;;;5004498;28;20668;-65
2023/03/25 11:12:00;;;;;;;0.80;0.50;;;15.20;90.10;;;;;;5005828;28;20217;-65
2023/03/25 11:14:28;;;;;;;1.83;1.20;;;15.00;92.60;;;;;;5007172;28;20179;-65
2023/03/25 11:17:04;;;;;;;1.75;1.15;;;14.80;94.30;;;;;;5005763;28;20187;-65
2023/03/25 11:19:43;;;;;;;1.00;0.70;;;15.00;94.80;;;;;;5007586;28;20234;-66
2023/03/25 11:22:25;;;;;;;0.70;0.70;;;14.90;92.80;;;;;;5006724;28;20225;-65
2023/03/25 11:24:56;;;;;;;1.58;0.60;;;14.80;93.40;;;;;;5007008;28;20189;-66
2023/03/25 11:27:27;;;;;;;0.80;0.65;;;15.00;92.90;;;;;;5006453;28;20204;-66
2023/03/25 11:29:58;;;;;;;0.80;0.70;;;15.20;92.40;;;;;;5005868;28;20183;-66
2023/03/25 11:32:35;;;;;;;1.98;0.80;;;15.30;91.60;;;;;;5007998;28;20229;-65
2023/03/25 11:35:06;;;;;;;1.52;0.88;;;15.70;91.60;;;;;;5006228;28;20205;-66
2023/03/25 11:37:41;;;;;;;1.33;0.70;;;16.20;91.00;;;;;;5007552;28;20198;-66
2023/03/25 11:40:14;;;;;;;1.30;0.60;;;16.40;88.40;;;;;;5006652;28;20276;-66
2023/03/25 11:42:48;;;;;;;0.80;0.60;;;16.80;86.70;;;;;;5007487;28;20237;-66
2023/03/25 11:45:30;;;;;;;0.90;0.60;;;17.40;86.10;;;;;;5006818;28;20544;-66
2023/03/25 11:48:07;;;;;;;2.83;0.95;;;17.70;83.50;;;;;;5007253;28;20238;-66
2023/03/25 11:50:34;;;;;;;2.28;0.80;;;17.30;80.90;;;;;;5003525;28;20237;-66
2023/03/25 11:53:02;;;;;;;1.10;1.00;;;16.70;83.40;;;;;;5006879;28;20362;-67
2023/03/25 11:55:30;;;;;;;1.55;0.88;;;16.80;83.90;;;;;;5006210;28;20752;-66
2023/03/25 11:57:59;;;;;;;0.73;0.60;;;16.60;82.50;;;;;;5007307;28;20195;-66
2023/03/25 12:00:27;;;;;;;1.42;0.80;;;16.50;84.70;;;;;;5007181;28;20203;-66
2023/03/25 12:03:12;;;;;;;2.85;0.77;;;16.60;84.50;;;;;;5007986;28;20191;-67
2023/03/25 12:05:39;;;;;;;1.40;0.70;;;16.60;82.90;;;;;;5005587;28;20219;-67
2023/03/25 12:08:14;;;;;;;1.70;1.10;;;15.90;86.10;;;;;;5007697;28;20236;-64
2023/03/25 12:11:05;;;;;;;1.00;0.70;;;15.80;86.10;;;;;;5006051;28;20301;-64
2023/03/25 12:13:41;;;;;;;1.27;0.80;;;16.00;85.00;;;;;;5007510;28;20216;-67
2023/03/25 12:16:24;;;;;;;2.17;0.60;;;15.90;85.50;;;;;;5007059;28;20190;-67
2023/03/25 12:19:41;;;;;;;1.55;0.70;;;16.00;87.00;;;;;;5006953;28;20191;-66
2023/03/25 12:22:25;;;;;;;2.10;0.90;;;15.90;85.90;;;;;;5006104;28;20707;-67
2023/03/25 12:24:58;;;;;;;1.92;1.00;;;15.80;83.40;;;;;;5006429;28;20657;-67
2023/03/25 12:27:47;;;;;;;0.88;0.70;;;16.00;84.20;;;;;;5006294;28;20214;-67
2023/03/25 12:30:44;;;;;;;0.82;0.63;;;15.90;84.70;;;;;;5005640;28;20622;-67
2023/03/25 12:33:27;;;;;;;2.30;1.20;;;15.80;84.70;;;;;;4998295;28;20191;-66
2023/03/25 12:36:18;;;;;;;2.33;0.98;;;15.70;85.10;;;;;;5019440;28;20187;-67
2023/03/25 12:39:19;;;;;;;1.50;0.85;;;15.10;85.40;;;;;;5007682;28;20198;-65
2023/03/25 12:42:06;;;;;;;0.88;0.63;;;15.00;86.60;;;;;;5006058;28;20207;-66
2023/03/25 12:45:00;;;;;;;2.67;0.90;;;14.90;86.30;;;;;;5007390;28;20324;-64
2023/03/25 12:47:56;;;;;;;1.35;1.00;;;15.10;88.20;;;;;;5008230;28;20202;-65
2023/03/25 12:50:25;;;;;;;4.70;0.80;;;14.60;90.50;;;;;;5036983;28;20699;-65
2023/03/25 12:53:03;;;;;;;1.35;0.90;;;14.30;91.70;;;;;;5009513;28;20270;-65
2023/03/25 12:55:51;;;;;;;2.97;0.85;;;13.90;93.40;;;;;;5006913;28;20183;-65
2023/03/25 12:58:23;;;;;;;1.80;0.77;;;13.60;95.70;;;;;;5008691;28;20624;-64
2023/03/25 13:01:33;;;;;;;1.48;0.90;;;13.50;97.50;;;;;;5009327;28;20279;-65
2023/03/25 13:04:14;;;;;;;3.45;0.95;;;13.40;97.90;;;;;;5005725;28;20664;-65
2023/03/25 13:07:01;;;;;;;1.23;0.90;;;13.30;99.90;;;;;;5010222;28;20217;-65
2023/03/25 13:09:53;;;;;;;1.42;0.80;;;13.50;97.00;;;;;;5009453;28;20187;-64
2023/03/25 13:12:27;;;;;;;2.50;0.80;;;13.30;96.70;;;;;;5003745;28;20302;-64